createdAt,value
2019-02-10T00:02:21.577Z,68.62
2019-02-10T00:04:49.895Z,68.83
2019-02-10T00:07:18.248Z,67.51
2019-02-10T00:09:46.609Z,68.69
2019-02-10T00:12:14.927Z,68.23
2019-02-10T00:14:43.246Z,68.37
2019-02-10T00:17:12.280Z,68.65
2019-02-10T00:19:40.575Z,68.74
2019-02-10T00:22:09.034Z,69.50
2019-02-10T00:24:37.411Z,69.23
2019-02-10T00:27:05.787Z,69.17
2019-02-10T00:29:34.126Z,68.93
2019-02-10T00:32:02.482Z,69.57
2019-02-10T00:34:30.816Z,69.55
2019-02-10T00:36:59.211Z,70.13
2019-02-10T00:39:27.513Z,70.25
2019-02-10T00:41:55.886Z,70.23
2019-02-10T00:44:24.189Z,70.36
2019-02-10T00:46:52.533Z,70.84
2019-02-10T00:49:20.850Z,71.53
2019-02-10T00:51:49.210Z,71.56
2019-02-10T00:54:17.547Z,71.55
2019-02-10T00:56:45.903Z,72.16
2019-02-10T00:59:14.249Z,71.85
2019-02-10T01:01:42.577Z,71.69
2019-02-10T01:04:11.776Z,71.19
2019-02-10T01:06:41.687Z,71.00
2019-02-10T01:09:10.838Z,71.17
2019-02-10T01:11:39.898Z,70.54
2019-02-10T01:14:08.365Z,71.12
2019-02-10T01:16:36.697Z,70.75
2019-02-10T01:19:06.903Z,70.35
2019-02-10T01:21:35.401Z,70.11
2019-02-10T01:24:03.856Z,71.17
2019-02-10T01:26:32.277Z,70.09
2019-02-10T01:29:00.636Z,69.75
2019-02-10T01:31:28.971Z,69.58
2019-02-10T01:33:57.283Z,68.85
2019-02-10T01:36:25.631Z,68.82
2019-02-10T01:38:53.953Z,69.36
2019-02-10T01:41:22.342Z,68.90
2019-02-10T01:43:50.645Z,68.62
2019-02-10T01:46:19.032Z,68.12
2019-02-10T01:48:47.354Z,67.29
2019-02-10T01:51:15.681Z,68.06
2019-02-10T01:53:44.027Z,67.62
2019-02-10T01:56:12.603Z,67.77
2019-02-10T01:58:40.914Z,67.88
2019-02-10T02:01:09.448Z,67.64
2019-02-10T02:03:37.797Z,67.73
2019-02-10T02:06:06.155Z,67.72
2019-02-10T02:08:34.487Z,67.99
2019-02-10T02:11:02.822Z,68.03
2019-02-10T02:13:31.143Z,67.68
2019-02-10T02:15:59.489Z,67.21
2019-02-10T02:18:27.810Z,67.03
2019-02-10T02:20:56.149Z,67.56
2019-02-10T02:23:24.527Z,67.51
2019-02-10T02:25:52.921Z,67.58
2019-02-10T02:28:21.286Z,67.00
2019-02-10T02:30:49.689Z,67.04
2019-02-10T02:33:17.981Z,67.44
2019-02-10T02:35:46.298Z,66.89
2019-02-10T02:38:14.659Z,66.27
2019-02-10T02:40:43.034Z,66.38
2019-02-10T02:43:11.689Z,66.07
2019-02-10T02:45:40.021Z,65.83
2019-02-10T02:48:08.375Z,65.15
2019-02-10T02:50:36.804Z,65.32
2019-02-10T02:53:05.137Z,65.42
2019-02-10T02:55:33.463Z,65.05
2019-02-10T02:58:01.921Z,64.39
2019-02-10T03:00:30.298Z,64.54
2019-02-10T03:02:58.641Z,64.20
2019-02-10T03:05:26.964Z,63.53
2019-02-10T03:07:55.311Z,63.60
2019-02-10T03:10:23.707Z,63.54
2019-02-10T03:12:52.072Z,63.00
2019-02-10T03:15:20.397Z,63.38
2019-02-10T03:17:48.792Z,63.03
2019-02-10T03:20:17.151Z,63.19
2019-02-10T03:22:45.451Z,63.49
2019-02-10T03:25:14.100Z,62.69
2019-02-10T03:27:42.419Z,62.78
2019-02-10T03:30:12.294Z,62.89
2019-02-10T03:32:40.679Z,62.46
2019-02-10T03:35:09.135Z,62.24
2019-02-10T03:37:37.500Z,62.70
2019-02-10T03:40:08.244Z,64.49
2019-02-10T03:42:36.625Z,64.58
2019-02-10T03:45:07.260Z,66.60
2019-02-10T03:47:35.610Z,66.89
2019-02-10T03:50:05.833Z,67.26
2019-02-10T03:52:34.302Z,67.26
2019-02-10T03:55:02.773Z,67.38
2019-02-10T03:57:31.177Z,68.37
2019-02-10T03:59:59.539Z,68.25
2019-02-10T04:02:27.881Z,68.35
2019-02-10T04:04:56.315Z,69.16
2019-02-10T04:07:24.610Z,71.02
2019-02-10T04:09:52.990Z,70.09
2019-02-10T04:12:21.402Z,70.28
2019-02-10T04:14:49.777Z,69.91
2019-02-10T04:17:18.129Z,70.87
2019-02-10T04:19:46.471Z,70.25
2019-02-10T04:22:14.791Z,70.79
2019-02-10T04:24:43.168Z,70.90
2019-02-10T04:27:11.870Z,71.07
2019-02-10T04:29:40.198Z,72.05
2019-02-10T04:32:09.724Z,72.39
2019-02-10T04:34:38.058Z,71.93
2019-02-10T04:37:06.379Z,73.13
2019-02-10T04:39:34.728Z,73.36
2019-02-10T04:42:03.053Z,72.86
2019-02-10T04:44:31.610Z,72.33
2019-02-10T04:47:00.088Z,72.53
2019-02-10T04:49:28.400Z,73.33
2019-02-10T04:51:56.733Z,72.57
2019-02-10T04:54:25.068Z,72.77
2019-02-10T04:56:53.865Z,72.21
2019-02-10T04:59:22.196Z,71.59
2019-02-10T05:01:50.522Z,71.41
2019-02-10T05:04:18.851Z,72.08
2019-02-10T05:06:47.161Z,72.63
2019-02-10T05:09:15.486Z,72.74
2019-02-10T05:11:43.800Z,72.46
2019-02-10T05:14:12.419Z,72.73
2019-02-10T05:16:40.730Z,72.85
2019-02-10T05:19:09.094Z,73.33
2019-02-10T05:21:37.432Z,73.81
2019-02-10T05:24:05.746Z,73.76
2019-02-10T05:26:34.073Z,74.26
2019-02-10T05:29:02.390Z,73.51
2019-02-10T05:31:30.741Z,72.98
2019-02-10T05:33:59.066Z,73.07
2019-02-10T05:36:27.411Z,72.91
2019-02-10T05:38:55.721Z,71.86
2019-02-10T05:41:24.078Z,72.91
2019-02-10T05:43:52.377Z,72.41
2019-02-10T05:46:20.883Z,72.82
2019-02-10T05:48:49.186Z,71.36
2019-02-10T05:51:17.520Z,72.10
2019-02-10T05:53:45.828Z,71.14
2019-02-10T05:56:14.170Z,71.44
2019-02-10T05:58:42.496Z,70.84
2019-02-10T06:01:17.244Z,70.31
2019-02-10T06:03:45.565Z,70.04
2019-02-10T06:06:13.921Z,68.87
2019-02-10T06:08:42.245Z,68.99
2019-02-10T06:11:11.260Z,68.19
2019-02-10T06:13:39.560Z,68.22
2019-02-10T06:16:07.881Z,67.28
2019-02-10T06:18:36.221Z,67.20
2019-02-10T06:21:04.571Z,67.14
2019-02-10T06:23:32.892Z,66.69
2019-02-10T06:26:01.237Z,66.61
2019-02-10T06:28:29.543Z,65.99
2019-02-10T06:30:57.863Z,65.83
2019-02-10T06:33:26.174Z,65.98
2019-02-10T06:35:54.524Z,65.51
2019-02-10T06:38:22.998Z,65.79
2019-02-10T06:40:51.420Z,65.90
2019-02-10T06:43:19.810Z,65.14
2019-02-10T06:45:48.204Z,65.85
2019-02-10T06:48:16.538Z,65.83
2019-02-10T06:50:44.847Z,65.96
2019-02-10T06:53:13.330Z,66.15
2019-02-10T06:55:41.674Z,65.61
2019-02-10T06:58:10.001Z,66.39
2019-02-10T07:00:41.093Z,65.58
2019-02-10T07:03:16.622Z,65.83
2019-02-10T07:05:45.419Z,65.62
2019-02-10T07:08:13.973Z,65.44
2019-02-10T07:10:42.309Z,65.33
2019-02-10T07:13:11.814Z,65.17
2019-02-10T07:15:47.473Z,64.19
2019-02-10T07:18:23.227Z,63.70
2019-02-10T07:20:51.517Z,63.87
2019-02-10T07:23:26.196Z,64.34
2019-02-10T07:25:54.522Z,63.86
2019-02-10T07:28:26.217Z,63.00
2019-02-10T07:30:57.898Z,62.65
2019-02-10T07:33:30.619Z,62.68
2019-02-10T07:36:03.293Z,62.93
2019-02-10T07:38:38.650Z,62.95
2019-02-10T07:41:12.721Z,62.20
2019-02-10T07:43:46.251Z,62.30
2019-02-10T07:46:19.929Z,62.41
2019-02-10T07:48:53.048Z,62.20
2019-02-10T07:51:27.717Z,62.05
2019-02-10T07:54:01.200Z,62.51
2019-02-10T07:56:37.318Z,62.12
2019-02-10T07:59:11.051Z,62.17
2019-02-10T08:01:43.015Z,62.78
2019-02-10T08:04:16.303Z,62.21
2019-02-10T08:06:49.211Z,62.80
2019-02-10T08:09:24.031Z,63.29
2019-02-10T08:11:58.766Z,64.12
2019-02-10T08:14:33.443Z,63.68
2019-02-10T08:20:20.161Z,65.66
2019-02-10T08:22:53.795Z,66.02
2019-02-10T08:25:24.361Z,65.25
2019-02-10T08:31:08.037Z,66.28
2019-02-10T08:33:40.750Z,66.99
2019-02-10T08:36:13.845Z,67.25
2019-02-10T08:41:56.898Z,67.26
2019-02-10T08:44:30.549Z,67.83
2019-02-10T08:47:05.350Z,67.08
2019-02-10T08:52:51.698Z,66.37
2019-02-10T08:55:15.485Z,66.33
2019-02-10T08:57:43.825Z,66.38
2019-02-10T09:00:12.202Z,66.78
2019-02-10T09:02:40.564Z,66.61
2019-02-10T09:05:09.438Z,66.02
2019-02-10T09:07:37.728Z,66.29
2019-02-10T09:10:10.668Z,65.46
2019-02-10T09:12:38.999Z,66.36
2019-02-10T09:15:11.228Z,66.35
2019-02-10T09:17:39.673Z,66.21
2019-02-10T09:20:10.317Z,65.56
2019-02-10T09:22:38.694Z,65.36
2019-02-10T09:25:08.608Z,65.86
2019-02-10T09:27:36.975Z,64.32
2019-02-10T09:30:08.139Z,64.11
2019-02-10T09:32:36.516Z,64.25
2019-02-10T09:35:06.708Z,63.74
2019-02-10T09:37:35.063Z,63.76
2019-02-10T09:40:05.929Z,63.65
2019-02-10T09:42:34.240Z,63.24
2019-02-10T09:45:02.696Z,63.03
2019-02-10T09:47:31.049Z,62.65
2019-02-10T09:49:59.393Z,62.88
2019-02-10T09:52:27.702Z,62.43
2019-02-10T09:54:56.058Z,62.76
2019-02-10T09:57:24.381Z,62.46
2019-02-10T09:59:52.774Z,62.25
2019-02-10T10:02:21.086Z,62.16
2019-02-10T10:04:49.445Z,63.26
2019-02-10T10:07:17.788Z,63.44
2019-02-10T10:12:35.365Z,64.48
2019-02-10T10:15:05.003Z,64.71
2019-02-10T10:17:33.303Z,65.64
2019-02-10T10:20:01.645Z,65.52
2019-02-10T10:22:29.957Z,65.55
2019-02-10T10:24:58.334Z,65.06
2019-02-10T10:27:26.647Z,65.83
2019-02-10T10:29:54.975Z,65.22
2019-02-10T10:32:23.339Z,64.64
2019-02-10T10:34:51.673Z,64.80
2019-02-10T10:37:19.993Z,64.90
2019-02-10T10:39:48.342Z,66.66
2019-02-10T10:42:16.696Z,66.79
2019-02-10T10:44:45.006Z,67.52
2019-02-10T10:47:13.321Z,68.23
2019-02-10T10:49:41.634Z,68.71
2019-02-10T10:52:09.981Z,70.00
2019-02-10T10:54:42.815Z,69.54
2019-02-10T10:57:08.888Z,68.91
2019-02-10T10:59:37.202Z,68.87
2019-02-10T11:02:05.641Z,69.05
2019-02-10T11:04:33.927Z,69.52
2019-02-10T11:07:02.261Z,69.22
2019-02-10T11:09:35.361Z,70.64
2019-02-10T11:12:21.881Z,70.78
2019-02-10T11:14:50.225Z,72.00
2019-02-10T11:17:18.559Z,72.32
2019-02-10T11:19:46.877Z,72.33
2019-02-10T11:22:15.208Z,73.46
2019-02-10T11:24:43.511Z,73.49
2019-02-10T11:27:11.846Z,73.24
2019-02-10T11:29:40.173Z,73.35
2019-02-10T11:32:09.377Z,73.14
2019-02-10T11:34:38.442Z,73.03
2019-02-10T11:37:07.330Z,73.92
2019-02-10T11:39:43.400Z,73.49
2019-02-10T11:42:06.177Z,73.65
2019-02-10T11:44:34.504Z,73.32
2019-02-10T11:47:02.959Z,73.73
2019-02-10T11:49:31.338Z,73.16
2019-02-10T11:51:59.660Z,73.74
2019-02-10T11:54:27.991Z,73.77
2019-02-10T11:56:56.368Z,73.07
2019-02-10T11:59:24.737Z,73.45
2019-02-10T12:01:53.089Z,73.38
2019-02-10T12:04:21.431Z,74.49
2019-02-10T12:06:49.746Z,75.02
2019-02-10T12:09:19.147Z,74.61
2019-02-10T12:11:47.566Z,75.60
2019-02-10T12:14:15.905Z,75.27
2019-02-10T12:16:44.224Z,75.94
2019-02-10T12:19:12.550Z,75.32
2019-02-10T12:21:40.879Z,75.50
2019-02-10T12:24:09.321Z,75.19
2019-02-10T12:26:37.655Z,75.54
2019-02-10T12:29:06.057Z,76.34
2019-02-10T12:31:34.401Z,76.53
2019-02-10T12:34:02.858Z,76.05
2019-02-10T12:36:31.165Z,76.86
2019-02-10T12:38:59.507Z,76.72
2019-02-10T12:41:27.847Z,77.05
2019-02-10T12:43:56.189Z,77.03
2019-02-10T12:46:24.511Z,76.92
2019-02-10T12:48:52.847Z,77.08
2019-02-10T12:51:21.162Z,77.06
2019-02-10T12:53:49.469Z,77.31
2019-02-10T12:56:17.785Z,77.33
2019-02-10T12:58:46.110Z,76.57
2019-02-10T13:01:14.461Z,76.91
2019-02-10T13:03:42.820Z,76.71
2019-02-10T13:06:11.137Z,77.30
2019-02-10T13:08:39.470Z,77.58
2019-02-10T13:11:08.174Z,77.20
2019-02-10T13:13:36.502Z,77.42
2019-02-10T13:16:04.911Z,77.61
2019-02-10T13:18:33.241Z,77.16
2019-02-10T13:21:01.567Z,77.66
2019-02-10T13:23:29.918Z,78.07
2019-02-10T13:25:58.238Z,78.28
2019-02-10T13:28:27.825Z,77.87
2019-02-10T13:30:56.332Z,78.80
2019-02-10T13:33:24.860Z,78.60
2019-02-10T13:35:53.379Z,78.26
2019-02-10T13:38:21.694Z,78.21
2019-02-10T13:40:50.011Z,79.19
2019-02-10T13:43:18.337Z,78.92
2019-02-10T13:45:46.665Z,78.72
2019-02-10T13:48:14.998Z,78.99
2019-02-10T13:50:43.313Z,78.37
2019-02-10T13:53:11.644Z,78.84
2019-02-10T13:55:39.985Z,78.76
2019-02-10T13:58:08.634Z,79.07
2019-02-10T14:00:36.975Z,79.05
2019-02-10T14:03:05.367Z,79.12
2019-02-10T14:05:33.748Z,78.90
2019-02-10T14:08:02.137Z,78.76
2019-02-10T14:10:30.472Z,77.66
2019-02-10T14:12:58.777Z,77.83
2019-02-10T14:15:27.185Z,78.27
2019-02-10T14:17:55.515Z,77.83
2019-02-10T14:20:23.908Z,77.99
2019-02-10T14:22:52.231Z,77.83
2019-02-10T14:25:20.567Z,78.33
2019-02-10T14:27:48.877Z,78.00
2019-02-10T14:30:18.790Z,76.97
2019-02-10T14:32:47.140Z,76.61
2019-02-10T14:35:15.481Z,77.06
2019-02-10T14:37:43.775Z,77.21
2019-02-10T14:40:12.937Z,76.46
2019-02-10T14:42:41.939Z,76.58
2019-02-10T14:45:13.836Z,76.06
2019-02-10T14:47:42.186Z,76.12
2019-02-10T14:50:13.691Z,75.24
2019-02-10T14:52:42.013Z,75.64
2019-02-10T14:55:10.628Z,75.18
2019-02-10T14:57:38.953Z,74.66
2019-02-10T15:00:11.172Z,74.70
2019-02-10T15:02:40.368Z,74.46
2019-02-10T15:05:09.509Z,73.49
2019-02-10T15:07:37.800Z,74.02
2019-02-10T15:10:13.182Z,74.07
2019-02-10T15:12:41.506Z,73.42
2019-02-10T15:15:10.552Z,72.85
2019-02-10T15:17:38.876Z,73.78
2019-02-10T15:20:09.953Z,72.68
2019-02-10T15:22:38.345Z,72.50
2019-02-10T15:25:09.923Z,72.63
2019-02-10T15:27:38.249Z,72.17
2019-02-10T15:30:10.985Z,72.77
2019-02-10T15:32:39.267Z,72.99
2019-02-10T15:35:08.261Z,73.17
2019-02-10T15:37:36.640Z,72.45
2019-02-10T15:40:07.927Z,72.76
2019-02-10T15:42:36.288Z,72.84
2019-02-10T15:45:06.103Z,71.41
2019-02-10T15:47:34.975Z,71.20
2019-02-10T15:50:05.198Z,72.03
2019-02-10T15:52:33.606Z,72.59
2019-02-10T15:55:01.963Z,72.34
2019-02-10T15:57:30.380Z,72.70
2019-02-10T15:59:58.695Z,72.84
2019-02-10T16:02:27.405Z,73.01
2019-02-10T16:04:56.126Z,71.87
2019-02-10T16:07:24.973Z,72.12
2019-02-10T16:09:53.446Z,71.52
2019-02-10T16:12:21.894Z,72.33
2019-02-10T16:14:50.484Z,71.14
2019-02-10T16:17:18.946Z,71.50
2019-02-10T16:19:47.558Z,71.45
2019-02-10T16:22:16.135Z,71.18
2019-02-10T16:24:44.443Z,71.24
2019-02-10T16:27:13.810Z,71.30
2019-02-10T16:29:42.129Z,70.75
2019-02-10T16:32:10.501Z,70.88
2019-02-10T16:34:38.823Z,71.44
2019-02-10T16:37:07.535Z,71.07
2019-02-10T16:39:35.834Z,70.60
2019-02-10T16:42:04.169Z,70.98
2019-02-10T16:44:32.490Z,70.34
2019-02-10T16:47:00.835Z,70.34
2019-02-10T16:49:29.174Z,70.89
2019-02-10T16:51:57.606Z,71.17
2019-02-10T16:54:25.926Z,70.73
2019-02-10T16:56:54.410Z,70.43
2019-02-10T17:01:56.419Z,70.12
2019-02-10T17:04:25.078Z,69.27
2019-02-10T17:06:53.589Z,69.63
2019-02-10T17:09:22.190Z,70.04
2019-02-10T17:11:50.550Z,69.44
2019-02-10T17:14:18.885Z,68.60
2019-02-10T17:16:47.255Z,69.04
2019-02-10T17:19:15.563Z,67.90
2019-02-10T17:21:44.018Z,68.91
2019-02-10T17:24:12.917Z,68.04
2019-02-10T17:26:41.301Z,66.76
2019-02-10T17:29:10.226Z,66.32
2019-02-10T17:31:38.538Z,66.75
2019-02-10T17:34:06.862Z,66.15
2019-02-10T17:36:35.181Z,65.92
2019-02-10T17:39:03.798Z,65.67
2019-02-10T17:41:32.107Z,66.24
2019-02-10T17:44:00.440Z,65.53
2019-02-10T17:46:29.329Z,65.67
2019-02-10T17:48:57.652Z,67.05
2019-02-10T17:51:25.961Z,66.67
2019-02-10T17:53:54.306Z,67.38
2019-02-10T17:56:22.689Z,68.33
2019-02-10T17:58:51.029Z,68.45
2019-02-10T18:01:19.707Z,68.44
2019-02-10T18:03:48.042Z,68.24
2019-02-10T18:06:16.439Z,67.80
2019-02-10T18:08:44.799Z,68.16
2019-02-10T18:11:13.242Z,68.56
2019-02-10T18:13:41.555Z,69.16
2019-02-10T18:16:12.527Z,69.12
2019-02-10T18:18:43.147Z,68.68
2019-02-10T18:21:16.119Z,68.86
2019-02-10T18:23:48.249Z,68.53
2019-02-10T18:26:20.320Z,69.19
2019-02-10T18:28:54.970Z,68.77
2019-02-10T18:31:35.862Z,68.95
2019-02-10T18:34:04.658Z,68.90
2019-02-10T18:36:35.811Z,68.19
2019-02-10T18:39:06.569Z,69.21
2019-02-10T18:41:39.363Z,68.80
2019-02-10T18:44:10.290Z,68.37
2019-02-10T18:46:42.490Z,68.79
2019-02-10T18:49:13.707Z,68.13
2019-02-10T18:51:46.292Z,68.44
2019-02-10T18:54:16.986Z,68.06
2019-02-10T18:56:48.950Z,68.13
2019-02-10T18:59:19.692Z,67.97
2019-02-10T19:01:49.983Z,68.33
2019-02-10T19:04:20.978Z,68.32
2019-02-10T19:06:49.319Z,68.05
2019-02-10T19:09:20.397Z,67.61
2019-02-10T19:11:51.375Z,67.69
2019-02-10T19:14:22.411Z,67.38
2019-02-10T19:16:53.412Z,67.55
2019-02-10T19:19:23.733Z,67.48
2019-02-10T19:21:54.024Z,67.06
2019-02-10T19:24:26.676Z,66.72
2019-02-10T19:26:57.637Z,66.22
2019-02-10T19:29:28.800Z,66.16
2019-02-10T19:31:59.996Z,66.59
2019-02-10T19:34:30.990Z,66.65
2019-02-10T19:37:01.200Z,65.93
2019-02-10T19:39:33.068Z,66.21
2019-02-10T19:42:04.532Z,66.81
2019-02-10T19:44:35.830Z,66.51
2019-02-10T19:47:06.502Z,66.76
2019-02-10T19:49:37.600Z,66.49
2019-02-10T19:52:08.718Z,66.16
2019-02-10T19:54:39.441Z,66.57
2019-02-10T19:57:10.968Z,66.07
2019-02-10T19:59:41.063Z,66.42
2019-02-10T20:02:10.017Z,66.38
2019-02-10T20:04:41.762Z,67.04
2019-02-10T20:07:12.900Z,67.13
2019-02-10T20:09:44.009Z,67.16
2019-02-10T20:12:15.340Z,67.41
2019-02-10T20:14:45.831Z,68.03
2019-02-10T20:17:16.809Z,68.75
2019-02-10T20:19:47.940Z,68.73
2019-02-10T20:22:19.882Z,69.33
2019-02-10T20:24:50.829Z,68.86
2019-02-10T20:27:21.944Z,68.40
2019-02-10T20:29:52.900Z,68.80
2019-02-10T20:32:23.544Z,69.12
2019-02-10T20:34:54.453Z,69.00
2019-02-10T20:37:26.251Z,68.54
2019-02-10T20:39:58.327Z,68.91
2019-02-10T20:42:28.007Z,69.39
2019-02-10T20:44:59.157Z,69.84
2019-02-10T20:47:28.984Z,70.10
2019-02-10T20:50:00.310Z,70.25
2019-02-10T20:52:31.070Z,70.69
2019-02-10T20:55:00.463Z,70.45
2019-02-10T20:57:31.426Z,70.53
2019-02-10T21:00:02.522Z,70.70
2019-02-10T21:02:32.813Z,70.65
2019-02-10T21:05:03.835Z,69.88
2019-02-10T21:07:34.953Z,70.30
2019-02-10T21:10:05.155Z,70.39
2019-02-10T21:12:36.177Z,70.49
2019-02-10T21:15:09.752Z,70.42
2019-02-10T21:17:38.531Z,70.49
2019-02-10T21:20:11.518Z,70.35
2019-02-10T21:22:40.544Z,70.28
2019-02-10T21:25:12.352Z,69.86
2019-02-10T21:27:42.042Z,69.25
2019-02-10T21:30:14.679Z,69.00
2019-02-10T21:32:45.857Z,69.15
2019-02-10T21:35:16.815Z,69.20
2019-02-10T21:37:47.179Z,68.62
2019-02-10T21:40:17.076Z,68.44
2019-02-10T21:42:48.461Z,67.94
2019-02-10T21:45:19.248Z,68.30
2019-02-10T21:47:49.930Z,68.18
2019-02-10T21:50:18.234Z,67.64
2019-02-10T21:52:46.602Z,68.18
2019-02-10T21:55:16.637Z,67.76
2019-02-10T21:57:45.074Z,68.39
2019-02-10T22:00:14.739Z,67.93
2019-02-10T22:02:43.066Z,68.27
2019-02-10T22:05:12.304Z,66.98
2019-02-10T22:07:40.632Z,67.76
2019-02-10T22:10:11.488Z,67.76
2019-02-10T22:12:39.818Z,66.87
2019-02-10T22:15:10.130Z,66.88
2019-02-10T22:17:38.453Z,66.53
2019-02-10T22:20:11.453Z,66.13
2019-02-10T22:22:40.383Z,66.33
2019-02-10T22:25:11.220Z,65.99
2019-02-10T22:27:39.572Z,66.13
2019-02-10T22:30:13.238Z,65.81
2019-02-10T22:32:41.627Z,65.08
2019-02-10T22:35:10.304Z,65.08
2019-02-10T22:37:38.605Z,65.74
2019-02-10T22:40:10.456Z,64.75
2019-02-10T22:42:45.360Z,64.85
2019-02-10T22:45:11.578Z,63.95
2019-02-10T22:47:40.033Z,63.73
2019-02-10T22:50:12.797Z,63.60
2019-02-10T22:52:41.240Z,63.75
2019-02-10T22:55:09.804Z,63.42
2019-02-10T22:57:38.262Z,63.79
2019-02-10T23:00:15.225Z,63.74
2019-02-10T23:02:43.591Z,63.04
2019-02-10T23:05:12.594Z,63.08
2019-02-10T23:07:40.881Z,62.76
2019-02-10T23:10:09.594Z,62.94
2019-02-10T23:12:37.901Z,62.95
2019-02-10T23:15:06.350Z,62.97
2019-02-10T23:17:34.654Z,62.10
2019-02-10T23:20:03.167Z,62.37
2019-02-10T23:22:31.535Z,63.10
2019-02-10T23:24:59.881Z,63.21
2019-02-10T23:27:28.208Z,63.11
2019-02-10T23:29:56.567Z,63.14
2019-02-10T23:32:24.873Z,63.61
2019-02-10T23:34:53.288Z,63.59
2019-02-10T23:37:21.570Z,62.72
2019-02-10T23:39:49.906Z,63.87
2019-02-10T23:42:18.237Z,63.44
2019-02-10T23:44:46.569Z,63.43
2019-02-10T23:47:15.323Z,63.43
2019-02-10T23:49:43.662Z,64.35
2019-02-10T23:52:12.173Z,63.89
2019-02-10T23:54:41.952Z,64.76
2019-02-10T23:57:10.771Z,64.70
2019-02-10T23:59:41.922Z,64.69
